sensor_id;sensor_type;location;lat;lon;timestamp;pressure;altitude;pressure_sealevel;temperature
12409;BMP180;6268;48.188;17.134;2023-07-29T00:01:47;60961.75;;;-134.68
12409;BMP180;6268;48.188;17.134;2023-07-29T00:05:10;60961.75;;;-134.68
12409;BMP180;6268;48.188;17.134;2023-07-29T00:08:31;60961.75;;;-134.68
12409;BMP180;6268;48.188;17.134;2023-07-29T00:11:53;60961.75;;;-134.68
12409;BMP180;6268;48.188;17.134;2023-07-29T00:15:14;60961.75;;;-134.68
12409;BMP180;6268;48.188;17.134;2023-07-29T00:18:35;60961.75;;;-134.68
12409;BMP180;6268;48.188;17.134;2023-07-29T00:21:58;60961.75;;;-134.68
12409;BMP180;6268;48.188;17.134;2023-07-29T00:25:19;60961.75;;;-134.68
12409;BMP180;6268;48.188;17.134;2023-07-29T00:28:40;60961.75;;;-134.68
12409;BMP180;6268;48.188;17.134;2023-07-29T00:32:02;60961.75;;;-134.68
12409;BMP180;6268;48.188;17.134;2023-07-29T00:35:23;60961.75;;;-134.68
12409;BMP180;6268;48.188;17.134;2023-07-29T00:38:46;60961.75;;;-134.68
12409;BMP180;6268;48.188;17.134;2023-07-29T00:42:08;60961.75;;;-134.68
12409;BMP180;6268;48.188;17.134;2023-07-29T00:45:30;60961.75;;;-134.68
12409;BMP180;6268;48.188;17.134;2023-07-29T00:48:53;60961.75;;;-134.68
12409;BMP180;6268;48.188;17.134;2023-07-29T00:52:14;60961.75;;;-134.68
12409;BMP180;6268;48.188;17.134;2023-07-29T00:55:37;60961.75;;;-134.68
12409;BMP180;6268;48.188;17.134;2023-07-29T00:58:58;60961.75;;;-134.68
12409;BMP180;6268;48.188;17.134;2023-07-29T01:02:22;60961.75;;;-134.68
12409;BMP180;6268;48.188;17.134;2023-07-29T01:05:49;60961.75;;;-134.68
12409;BMP180;6268;48.188;17.134;2023-07-29T01:09:29;60961.75;;;-134.68
12409;BMP180;6268;48.188;17.134;2023-07-29T01:13:04;60961.75;;;-134.68
12409;BMP180;6268;48.188;17.134;2023-07-29T01:16:34;60961.75;;;-134.68
12409;BMP180;6268;48.188;17.134;2023-07-29T01:20:00;60961.75;;;-134.68
12409;BMP180;6268;48.188;17.134;2023-07-29T01:23:25;60961.75;;;-134.68
12409;BMP180;6268;48.188;17.134;2023-07-29T01:26:43;60961.75;;;-134.68
12409;BMP180;6268;48.188;17.134;2023-07-29T01:30:05;60961.75;;;-134.68
12409;BMP180;6268;48.188;17.134;2023-07-29T01:33:33;60961.75;;;-134.68
12409;BMP180;6268;48.188;17.134;2023-07-29T01:37:01;60961.75;;;-134.68
12409;BMP180;6268;48.188;17.134;2023-07-29T01:40:28;60961.75;;;-134.68
12409;BMP180;6268;48.188;17.134;2023-07-29T01:43:50;60961.75;;;-134.68
12409;BMP180;6268;48.188;17.134;2023-07-29T01:46:49;60961.75;;;-134.68
12409;BMP180;6268;48.188;17.134;2023-07-29T01:49:18;60961.75;;;-134.68
12409;BMP180;6268;48.188;17.134;2023-07-29T01:51:47;60961.75;;;-134.68
12409;BMP180;6268;48.188;17.134;2023-07-29T01:54:15;60961.75;;;-134.68
12409;BMP180;6268;48.188;17.134;2023-07-29T01:56:45;60961.75;;;-134.68
12409;BMP180;6268;48.188;17.134;2023-07-29T01:59:14;60961.75;;;-134.68
12409;BMP180;6268;48.188;17.134;2023-07-29T02:01:43;60961.75;;;-134.68
12409;BMP180;6268;48.188;17.134;2023-07-29T02:04:13;60961.75;;;-134.68
12409;BMP180;6268;48.188;17.134;2023-07-29T02:06:42;60961.75;;;-134.68
12409;BMP180;6268;48.188;17.134;2023-07-29T02:09:11;60961.75;;;-134.68
12409;BMP180;6268;48.188;17.134;2023-07-29T02:11:39;60961.75;;;-134.68
12409;BMP180;6268;48.188;17.134;2023-07-29T02:14:09;60961.75;;;-134.68
12409;BMP180;6268;48.188;17.134;2023-07-29T02:16:38;60961.75;;;-134.68
12409;BMP180;6268;48.188;17.134;2023-07-29T02:19:07;60961.75;;;-134.68
12409;BMP180;6268;48.188;17.134;2023-07-29T02:21:36;60961.75;;;-134.68
12409;BMP180;6268;48.188;17.134;2023-07-29T02:24:05;60961.75;;;-134.68
12409;BMP180;6268;48.188;17.134;2023-07-29T02:26:33;60961.75;;;-134.68
12409;BMP180;6268;48.188;17.134;2023-07-29T02:29:02;60961.75;;;-134.68
12409;BMP180;6268;48.188;17.134;2023-07-29T02:31:32;60961.75;;;-134.68
12409;BMP180;6268;48.188;17.134;2023-07-29T02:34:04;60961.75;;;-134.68
12409;BMP180;6268;48.188;17.134;2023-07-29T02:36:32;60961.75;;;-134.68
12409;BMP180;6268;48.188;17.134;2023-07-29T02:39:02;60961.75;;;-134.68
12409;BMP180;6268;48.188;17.134;2023-07-29T02:41:30;60961.75;;;-134.68
12409;BMP180;6268;48.188;17.134;2023-07-29T02:43:59;60961.75;;;-134.68
12409;BMP180;6268;48.188;17.134;2023-07-29T02:46:28;60961.75;;;-134.68
12409;BMP180;6268;48.188;17.134;2023-07-29T02:48:58;60961.75;;;-134.68
12409;BMP180;6268;48.188;17.134;2023-07-29T02:51:26;60961.75;;;-134.68
12409;BMP180;6268;48.188;17.134;2023-07-29T02:53:55;60961.75;;;-134.68
12409;BMP180;6268;48.188;17.134;2023-07-29T02:56:24;60961.75;;;-134.68
12409;BMP180;6268;48.188;17.134;2023-07-29T02:58:53;60961.75;;;-134.68
12409;BMP180;6268;48.188;17.134;2023-07-29T03:01:22;60961.75;;;-134.68
12409;BMP180;6268;48.188;17.134;2023-07-29T03:03:52;60961.75;;;-134.68
12409;BMP180;6268;48.188;17.134;2023-07-29T03:06:23;60961.75;;;-134.68
12409;BMP180;6268;48.188;17.134;2023-07-29T03:08:51;60961.75;;;-134.68
12409;BMP180;6268;48.188;17.134;2023-07-29T03:11:20;60961.75;;;-134.68
12409;BMP180;6268;48.188;17.134;2023-07-29T03:13:49;49650.72;;;-134.68
12409;BMP180;6268;48.188;17.134;2023-07-29T03:16:18;49646.84;;;-134.68
12409;BMP180;6268;48.188;17.134;2023-07-29T03:18:49;49648.78;;;-134.68
12409;BMP180;6268;48.188;17.134;2023-07-29T03:21:17;49650.72;;;-134.68
12409;BMP180;6268;48.188;17.134;2023-07-29T03:23:47;49650.72;;;-134.68
12409;BMP180;6268;48.188;17.134;2023-07-29T03:26:16;49650.72;;;-134.68
12409;BMP180;6268;48.188;17.134;2023-07-29T03:28:44;49650.72;;;-134.68
12409;BMP180;6268;48.188;17.134;2023-07-29T03:31:13;49650.72;;;-134.68
12409;BMP180;6268;48.188;17.134;2023-07-29T03:33:42;49650.72;;;-134.68
12409;BMP180;6268;48.188;17.134;2023-07-29T03:36:10;49650.72;;;-134.68
12409;BMP180;6268;48.188;17.134;2023-07-29T03:38:39;49654.59;;;-134.68
12409;BMP180;6268;48.188;17.134;2023-07-29T03:41:09;49648.78;;;-134.68
12409;BMP180;6268;48.188;17.134;2023-07-29T03:43:38;49650.72;;;-134.68
12409;BMP180;6268;48.188;17.134;2023-07-29T03:46:07;49650.72;;;-134.68
12409;BMP180;6268;48.188;17.134;2023-07-29T03:48:38;49650.72;;;-134.68
12409;BMP180;6268;48.188;17.134;2023-07-29T03:51:07;49650.72;;;-134.68
12409;BMP180;6268;48.188;17.134;2023-07-29T03:53:36;60961.75;;;-134.68
12409;BMP180;6268;48.188;17.134;2023-07-29T03:56:04;49650.72;;;-134.68
12409;BMP180;6268;48.188;17.134;2023-07-29T03:58:34;49650.72;;;-134.68
12409;BMP180;6268;48.188;17.134;2023-07-29T04:01:03;49646.84;;;-134.68
12409;BMP180;6268;48.188;17.134;2023-07-29T04:03:34;49650.72;;;-134.68
12409;BMP180;6268;48.188;17.134;2023-07-29T04:06:03;49650.72;;;-134.68
12409;BMP180;6268;48.188;17.134;2023-07-29T04:08:32;49648.78;;;-134.68
12409;BMP180;6268;48.188;17.134;2023-07-29T04:11:00;49650.72;;;-134.68
12409;BMP180;6268;48.188;17.134;2023-07-29T04:13:29;49652.66;;;-134.68
12409;BMP180;6268;48.188;17.134;2023-07-29T04:15:59;49648.78;;;-134.68
12409;BMP180;6268;48.188;17.134;2023-07-29T04:18:28;49650.72;;;-134.68
12409;BMP180;6268;48.188;17.134;2023-07-29T04:20:56;49648.78;;;-134.68
12409;BMP180;6268;48.188;17.134;2023-07-29T04:23:25;49652.66;;;-134.68
12409;BMP180;6268;48.188;17.134;2023-07-29T04:25:54;49650.72;;;-134.68
12409;BMP180;6268;48.188;17.134;2023-07-29T04:28:23;49648.78;;;-134.68
12409;BMP180;6268;48.188;17.134;2023-07-29T04:30:52;60961.75;;;-134.68
12409;BMP180;6268;48.188;17.134;2023-07-29T04:33:28;60961.75;;;-134.68
12409;BMP180;6268;48.188;17.134;2023-07-29T04:35:59;60961.75;;;-134.68
12409;BMP180;6268;48.188;17.134;2023-07-29T04:38:32;60961.75;;;-134.68
12409;BMP180;6268;48.188;17.134;2023-07-29T04:41:01;60961.75;;;-134.68
12409;BMP180;6268;48.188;17.134;2023-07-29T04:43:32;60961.75;;;-134.68
12409;BMP180;6268;48.188;17.134;2023-07-29T04:46:01;60961.75;;;-134.68
12409;BMP180;6268;48.188;17.134;2023-07-29T04:48:31;60961.75;;;-134.68
12409;BMP180;6268;48.188;17.134;2023-07-29T04:51:00;60961.75;;;-134.68
12409;BMP180;6268;48.188;17.134;2023-07-29T04:53:29;60961.75;;;-134.68
12409;BMP180;6268;48.188;17.134;2023-07-29T04:55:58;60961.75;;;-134.68
12409;BMP180;6268;48.188;17.134;2023-07-29T04:58:26;49650.72;;;-134.68
12409;BMP180;6268;48.188;17.134;2023-07-29T05:00:56;49650.72;;;-134.68
12409;BMP180;6268;48.188;17.134;2023-07-29T05:03:24;49648.78;;;-134.68
12409;BMP180;6268;48.188;17.134;2023-07-29T05:05:55;49650.72;;;-134.68
12409;BMP180;6268;48.188;17.134;2023-07-29T05:08:24;49654.59;;;-134.68
12409;BMP180;6268;48.188;17.134;2023-07-29T05:10:53;49650.72;;;-134.68
12409;BMP180;6268;48.188;17.134;2023-07-29T05:13:23;49648.78;;;-134.68
12409;BMP180;6268;48.188;17.134;2023-07-29T05:15:52;49650.72;;;-134.68
12409;BMP180;6268;48.188;17.134;2023-07-29T05:18:21;49650.72;;;-134.68
12409;BMP180;6268;48.188;17.134;2023-07-29T05:20:49;49650.72;;;-134.68
12409;BMP180;6268;48.188;17.134;2023-07-29T05:23:19;49654.59;;;-134.68
12409;BMP180;6268;48.188;17.134;2023-07-29T05:25:48;49650.72;;;-134.68
12409;BMP180;6268;48.188;17.134;2023-07-29T05:28:17;49650.72;;;-134.68
12409;BMP180;6268;48.188;17.134;2023-07-29T05:30:45;49648.78;;;-134.68
12409;BMP180;6268;48.188;17.134;2023-07-29T05:33:14;49648.78;;;-134.68
12409;BMP180;6268;48.188;17.134;2023-07-29T05:35:43;49648.78;;;-134.68
12409;BMP180;6268;48.188;17.134;2023-07-29T05:38:14;49648.78;;;-134.68
12409;BMP180;6268;48.188;17.134;2023-07-29T05:40:44;49650.72;;;-134.68
12409;BMP180;6268;48.188;17.134;2023-07-29T05:43:13;49646.84;;;-134.68
12409;BMP180;6268;48.188;17.134;2023-07-29T05:45:42;49650.72;;;-134.68
12409;BMP180;6268;48.188;17.134;2023-07-29T05:48:11;49650.72;;;-134.68
12409;BMP180;6268;48.188;17.134;2023-07-29T05:50:39;49648.78;;;-134.68
12409;BMP180;6268;48.188;17.134;2023-07-29T05:53:08;49652.66;;;-134.68
12409;BMP180;6268;48.188;17.134;2023-07-29T05:55:36;49648.78;;;-134.68
12409;BMP180;6268;48.188;17.134;2023-07-29T05:58:06;49650.72;;;-134.68
12409;BMP180;6268;48.188;17.134;2023-07-29T06:00:35;49650.72;;;-134.68
12409;BMP180;6268;48.188;17.134;2023-07-29T06:03:04;49650.72;;;-134.68
12409;BMP180;6268;48.188;17.134;2023-07-29T06:05:33;49648.78;;;-134.68
12409;BMP180;6268;48.188;17.134;2023-07-29T06:08:02;49648.78;;;-134.68
12409;BMP180;6268;48.188;17.134;2023-07-29T06:10:31;49650.72;;;-134.68
12409;BMP180;6268;48.188;17.134;2023-07-29T06:13:00;49650.72;;;-134.68
12409;BMP180;6268;48.188;17.134;2023-07-29T06:15:30;49650.72;;;-134.68
12409;BMP180;6268;48.188;17.134;2023-07-29T06:17:59;49650.72;;;-134.68
12409;BMP180;6268;48.188;17.134;2023-07-29T06:20:28;49652.66;;;-134.68
12409;BMP180;6268;48.188;17.134;2023-07-29T06:22:57;49650.72;;;-134.68
12409;BMP180;6268;48.188;17.134;2023-07-29T06:25:26;49650.72;;;-134.68
12409;BMP180;6268;48.188;17.134;2023-07-29T06:27:55;49652.66;;;-134.68
12409;BMP180;6268;48.188;17.134;2023-07-29T06:30:25;49650.72;;;-134.68
12409;BMP180;6268;48.188;17.134;2023-07-29T06:32:56;49650.72;;;-134.68
12409;BMP180;6268;48.188;17.134;2023-07-29T06:35:24;49648.78;;;-134.68
12409;BMP180;6268;48.188;17.134;2023-07-29T06:37:53;49652.66;;;-134.68
12409;BMP180;6268;48.188;17.134;2023-07-29T06:40:22;49650.72;;;-134.68
12409;BMP180;6268;48.188;17.134;2023-07-29T06:42:51;49650.72;;;-134.68
12409;BMP180;6268;48.188;17.134;2023-07-29T06:45:19;49650.72;;;-134.68
12409;BMP180;6268;48.188;17.134;2023-07-29T06:47:48;49652.66;;;-134.68
12409;BMP180;6268;48.188;17.134;2023-07-29T06:50:18;49654.59;;;-134.68
12409;BMP180;6268;48.188;17.134;2023-07-29T06:52:47;49654.59;;;-134.68
12409;BMP180;6268;48.188;17.134;2023-07-29T06:55:16;49654.59;;;-134.68
12409;BMP180;6268;48.188;17.134;2023-07-29T06:57:44;49654.59;;;-134.68
12409;BMP180;6268;48.188;17.134;2023-07-29T07:00:13;49654.59;;;-134.68
12409;BMP180;6268;48.188;17.134;2023-07-29T07:02:42;49654.59;;;-134.68
12409;BMP180;6268;48.188;17.134;2023-07-29T07:05:11;49654.59;;;-134.68
12409;BMP180;6268;48.188;17.134;2023-07-29T07:07:41;49656.53;;;-134.68
12409;BMP180;6268;48.188;17.134;2023-07-29T07:10:10;49650.72;;;-134.68
12409;BMP180;6268;48.188;17.134;2023-07-29T07:12:39;49656.53;;;-134.68
12409;BMP180;6268;48.188;17.134;2023-07-29T07:15:08;49650.72;;;-134.68
12409;BMP180;6268;48.188;17.134;2023-07-29T07:17:37;49654.59;;;-134.68
12409;BMP180;6268;48.188;17.134;2023-07-29T07:20:07;49654.59;;;-134.68
12409;BMP180;6268;48.188;17.134;2023-07-29T07:22:36;49654.59;;;-134.68
12409;BMP180;6268;48.188;17.134;2023-07-29T07:25:07;49650.72;;;-134.68
12409;BMP180;6268;48.188;17.134;2023-07-29T07:27:37;49652.66;;;-134.68
12409;BMP180;6268;48.188;17.134;2023-07-29T07:30:07;49654.59;;;-134.68
12409;BMP180;6268;48.188;17.134;2023-07-29T07:32:36;49650.72;;;-134.68
12409;BMP180;6268;48.188;17.134;2023-07-29T07:35:05;49652.66;;;-134.68
12409;BMP180;6268;48.188;17.134;2023-07-29T07:37:34;49652.66;;;-134.68
12409;BMP180;6268;48.188;17.134;2023-07-29T07:40:07;49654.59;;;-134.68
12409;BMP180;6268;48.188;17.134;2023-07-29T07:42:36;49650.72;;;-134.68
12409;BMP180;6268;48.188;17.134;2023-07-29T07:45:05;49652.66;;;-134.68
12409;BMP180;6268;48.188;17.134;2023-07-29T07:47:34;49652.66;;;-134.68
12409;BMP180;6268;48.188;17.134;2023-07-29T07:50:04;49650.72;;;-134.68
12409;BMP180;6268;48.188;17.134;2023-07-29T07:52:32;49652.66;;;-134.68
12409;BMP180;6268;48.188;17.134;2023-07-29T07:55:01;49652.66;;;-134.68
12409;BMP180;6268;48.188;17.134;2023-07-29T07:57:31;49650.72;;;-134.68
12409;BMP180;6268;48.188;17.134;2023-07-29T08:00:00;49650.72;;;-134.68
12409;BMP180;6268;48.188;17.134;2023-07-29T08:02:29;49652.66;;;-134.68
12409;BMP180;6268;48.188;17.134;2023-07-29T08:04:58;49654.59;;;-134.68
12409;BMP180;6268;48.188;17.134;2023-07-29T08:07:26;49654.59;;;-134.68
12409;BMP180;6268;48.188;17.134;2023-07-29T08:09:55;49654.59;;;-134.68
12409;BMP180;6268;48.188;17.134;2023-07-29T08:12:24;49650.72;;;-134.68
12409;BMP180;6268;48.188;17.134;2023-07-29T08:14:54;49650.72;;;-134.68
12409;BMP180;6268;48.188;17.134;2023-07-29T08:17:23;49650.72;;;-134.68
12409;BMP180;6268;48.188;17.134;2023-07-29T08:19:52;49654.59;;;-134.68
12409;BMP180;6268;48.188;17.134;2023-07-29T08:22:20;49652.66;;;-134.68
12409;BMP180;6268;48.188;17.134;2023-07-29T08:24:49;49650.72;;;-134.68
12409;BMP180;6268;48.188;17.134;2023-07-29T08:27:18;49654.59;;;-134.68
12409;BMP180;6268;48.188;17.134;2023-07-29T08:29:46;49650.72;;;-134.68
12409;BMP180;6268;48.188;17.134;2023-07-29T08:32:16;49650.72;;;-134.68
12409;BMP180;6268;48.188;17.134;2023-07-29T08:34:45;49656.53;;;-134.68
12409;BMP180;6268;48.188;17.134;2023-07-29T08:37:14;49656.53;;;-134.68
12409;BMP180;6268;48.188;17.134;2023-07-29T08:39:43;49654.59;;;-134.68
12409;BMP180;6268;48.188;17.134;2023-07-29T08:42:12;49654.59;;;-134.68
12409;BMP180;6268;48.188;17.134;2023-07-29T08:44:43;49654.59;;;-134.68
12409;BMP180;6268;48.188;17.134;2023-07-29T08:47:12;49656.53;;;-134.68
12409;BMP180;6268;48.188;17.134;2023-07-29T08:49:46;49652.66;;;-134.68
12409;BMP180;6268;48.188;17.134;2023-07-29T08:52:16;49652.66;;;-134.68
12409;BMP180;6268;48.188;17.134;2023-07-29T08:54:45;49654.59;;;-134.68
12409;BMP180;6268;48.188;17.134;2023-07-29T08:57:14;49654.59;;;-134.68
12409;BMP180;6268;48.188;17.134;2023-07-29T08:59:45;49656.53;;;-134.68
12409;BMP180;6268;48.188;17.134;2023-07-29T09:02:14;49654.59;;;-134.68
12409;BMP180;6268;48.188;17.134;2023-07-29T09:04:44;49654.59;;;-134.68
12409;BMP180;6268;48.188;17.134;2023-07-29T09:07:13;49652.66;;;-134.68
12409;BMP180;6268;48.188;17.134;2023-07-29T09:09:42;49654.59;;;-134.68
12409;BMP180;6268;48.188;17.134;2023-07-29T09:12:11;49654.59;;;-134.68
12409;BMP180;6268;48.188;17.134;2023-07-29T09:14:39;49652.66;;;-134.68
12409;BMP180;6268;48.188;17.134;2023-07-29T09:17:09;49654.59;;;-134.68
12409;BMP180;6268;48.188;17.134;2023-07-29T09:19:38;49654.59;;;-134.68
12409;BMP180;6268;48.188;17.134;2023-07-29T09:22:17;49654.59;;;-134.68
12409;BMP180;6268;48.188;17.134;2023-07-29T09:24:47;49656.53;;;-134.68
12409;BMP180;6268;48.188;17.134;2023-07-29T09:27:25;49650.72;;;-134.68
12409;BMP180;6268;48.188;17.134;2023-07-29T09:29:55;49654.59;;;-134.68
12409;BMP180;6268;48.188;17.134;2023-07-29T09:32:25;49652.66;;;-134.68
12409;BMP180;6268;48.188;17.134;2023-07-29T09:34:54;60961.75;;;-134.68
12409;BMP180;6268;48.188;17.134;2023-07-29T09:37:24;49652.66;;;-134.68
12409;BMP180;6268;48.188;17.134;2023-07-29T09:39:53;49650.72;;;-134.68
12409;BMP180;6268;48.188;17.134;2023-07-29T09:42:23;49652.66;;;-134.68
12409;BMP180;6268;48.188;17.134;2023-07-29T09:44:51;49654.59;;;-134.68
12409;BMP180;6268;48.188;17.134;2023-07-29T09:47:21;49652.66;;;-134.68
12409;BMP180;6268;48.188;17.134;2023-07-29T09:49:51;49656.53;;;-134.68
12409;BMP180;6268;48.188;17.134;2023-07-29T09:52:24;49654.59;;;-134.68
12409;BMP180;6268;48.188;17.134;2023-07-29T09:54:54;49654.59;;;-134.68
12409;BMP180;6268;48.188;17.134;2023-07-29T09:57:23;49654.59;;;-134.68
12409;BMP180;6268;48.188;17.134;2023-07-29T09:59:56;49654.59;;;-134.68
12409;BMP180;6268;48.188;17.134;2023-07-29T10:02:26;49656.53;;;-134.68
12409;BMP180;6268;48.188;17.134;2023-07-29T10:04:57;49650.72;;;-134.68
12409;BMP180;6268;48.188;17.134;2023-07-29T10:07:29;49652.66;;;-134.68
12409;BMP180;6268;48.188;17.134;2023-07-29T10:09:58;49654.59;;;-134.68
12409;BMP180;6268;48.188;17.134;2023-07-29T10:12:30;49654.59;;;-134.68
12409;BMP180;6268;48.188;17.134;2023-07-29T10:15:00;49650.72;;;-134.68
12409;BMP180;6268;48.188;17.134;2023-07-29T10:17:30;49656.53;;;-134.68
12409;BMP180;6268;48.188;17.134;2023-07-29T10:20:00;49654.59;;;-134.68
12409;BMP180;6268;48.188;17.134;2023-07-29T10:22:37;49650.72;;;-134.68
12409;BMP180;6268;48.188;17.134;2023-07-29T10:25:11;49658.47;;;-134.68
12409;BMP180;6268;48.188;17.134;2023-07-29T10:27:48;49654.59;;;-134.68
12409;BMP180;6268;48.188;17.134;2023-07-29T10:30:17;49654.59;;;-134.68
12409;BMP180;6268;48.188;17.134;2023-07-29T10:32:48;49652.66;;;-134.68
12409;BMP180;6268;48.188;17.134;2023-07-29T10:35:19;49654.59;;;-134.68
12409;BMP180;6268;48.188;17.134;2023-07-29T10:37:49;49650.72;;;-134.68
12409;BMP180;6268;48.188;17.134;2023-07-29T10:40:19;49656.53;;;-134.68
12409;BMP180;6268;48.188;17.134;2023-07-29T10:43:02;49654.59;;;-134.68
12409;BMP180;6268;48.188;17.134;2023-07-29T10:45:37;49652.66;;;-134.68
12409;BMP180;6268;48.188;17.134;2023-07-29T10:48:10;49652.66;;;-134.68
12409;BMP180;6268;48.188;17.134;2023-07-29T10:50:39;49654.59;;;-134.68
12409;BMP180;6268;48.188;17.134;2023-07-29T10:53:09;49650.72;;;-134.68
12409;BMP180;6268;48.188;17.134;2023-07-29T10:55:38;49650.72;;;-134.68
12409;BMP180;6268;48.188;17.134;2023-07-29T10:58:14;49652.66;;;-134.68
12409;BMP180;6268;48.188;17.134;2023-07-29T11:00:45;49650.72;;;-134.68
12409;BMP180;6268;48.188;17.134;2023-07-29T11:03:14;49652.66;;;-134.68
12409;BMP180;6268;48.188;17.134;2023-07-29T11:05:49;49650.72;;;-134.68
12409;BMP180;6268;48.188;17.134;2023-07-29T11:08:22;49654.59;;;-134.68
12409;BMP180;6268;48.188;17.134;2023-07-29T11:11:01;49654.59;;;-134.68
12409;BMP180;6268;48.188;17.134;2023-07-29T11:13:32;49654.59;;;-134.68
12409;BMP180;6268;48.188;17.134;2023-07-29T11:16:01;49658.47;;;-134.68
12409;BMP180;6268;48.188;17.134;2023-07-29T11:18:33;49654.59;;;-134.68
12409;BMP180;6268;48.188;17.134;2023-07-29T11:21:03;49654.59;;;-134.68
12409;BMP180;6268;48.188;17.134;2023-07-29T11:23:36;49650.72;;;-134.68
12409;BMP180;6268;48.188;17.134;2023-07-29T11:26:05;49652.66;;;-134.68
12409;BMP180;6268;48.188;17.134;2023-07-29T11:28:38;49654.59;;;-134.68
12409;BMP180;6268;48.188;17.134;2023-07-29T11:31:08;49654.59;;;-134.68
12409;BMP180;6268;48.188;17.134;2023-07-29T11:33:39;49654.59;;;-134.68
12409;BMP180;6268;48.188;17.134;2023-07-29T11:36:18;49652.66;;;-134.68
12409;BMP180;6268;48.188;17.134;2023-07-29T11:38:49;49654.59;;;-134.68
12409;BMP180;6268;48.188;17.134;2023-07-29T11:41:20;49650.72;;;-134.68
12409;BMP180;6268;48.188;17.134;2023-07-29T11:43:50;49652.66;;;-134.68
12409;BMP180;6268;48.188;17.134;2023-07-29T11:46:22;49650.72;;;-134.68
12409;BMP180;6268;48.188;17.134;2023-07-29T11:48:54;49654.59;;;-134.68
12409;BMP180;6268;48.188;17.134;2023-07-29T11:51:23;49652.66;;;-134.68
12409;BMP180;6268;48.188;17.134;2023-07-29T11:53:55;49650.72;;;-134.68
12409;BMP180;6268;48.188;17.134;2023-07-29T11:56:24;49652.66;;;-134.68
12409;BMP180;6268;48.188;17.134;2023-07-29T11:58:54;49654.59;;;-134.68
12409;BMP180;6268;48.188;17.134;2023-07-29T12:01:23;49652.66;;;-134.68
12409;BMP180;6268;48.188;17.134;2023-07-29T12:03:52;49652.66;;;-134.68
12409;BMP180;6268;48.188;17.134;2023-07-29T12:06:22;49648.78;;;-134.68
12409;BMP180;6268;48.188;17.134;2023-07-29T12:08:53;49654.59;;;-134.68
12409;BMP180;6268;48.188;17.134;2023-07-29T12:11:22;49654.59;;;-134.68
12409;BMP180;6268;48.188;17.134;2023-07-29T12:13:53;49654.59;;;-134.68
12409;BMP180;6268;48.188;17.134;2023-07-29T12:16:22;49652.66;;;-134.68
12409;BMP180;6268;48.188;17.134;2023-07-29T12:18:51;49652.66;;;-134.68
12409;BMP180;6268;48.188;17.134;2023-07-29T12:21:20;49650.72;;;-134.68
12409;BMP180;6268;48.188;17.134;2023-07-29T12:23:50;49652.66;;;-134.68
12409;BMP180;6268;48.188;17.134;2023-07-29T12:26:21;49652.66;;;-134.68
12409;BMP180;6268;48.188;17.134;2023-07-29T12:28:49;49652.66;;;-134.68
12409;BMP180;6268;48.188;17.134;2023-07-29T12:31:18;49652.66;;;-134.68
12409;BMP180;6268;48.188;17.134;2023-07-29T12:33:46;49650.72;;;-134.68
12409;BMP180;6268;48.188;17.134;2023-07-29T12:36:17;49652.66;;;-134.68
12409;BMP180;6268;48.188;17.134;2023-07-29T12:38:46;49652.66;;;-134.68
12409;BMP180;6268;48.188;17.134;2023-07-29T12:41:14;49652.66;;;-134.68
12409;BMP180;6268;48.188;17.134;2023-07-29T12:43:45;49652.66;;;-134.68
12409;BMP180;6268;48.188;17.134;2023-07-29T12:46:14;49652.66;;;-134.68
12409;BMP180;6268;48.188;17.134;2023-07-29T12:48:42;49654.59;;;-134.68
12409;BMP180;6268;48.188;17.134;2023-07-29T12:51:11;49652.66;;;-134.68
12409;BMP180;6268;48.188;17.134;2023-07-29T12:53:40;49652.66;;;-134.68
12409;BMP180;6268;48.188;17.134;2023-07-29T12:56:08;49652.66;;;-134.68
12409;BMP180;6268;48.188;17.134;2023-07-29T12:58:37;49654.59;;;-134.68
12409;BMP180;6268;48.188;17.134;2023-07-29T13:01:07;49650.72;;;-134.68
12409;BMP180;6268;48.188;17.134;2023-07-29T13:03:36;49650.72;;;-134.68
12409;BMP180;6268;48.188;17.134;2023-07-29T13:06:05;49650.72;;;-134.68
12409;BMP180;6268;48.188;17.134;2023-07-29T13:08:34;49650.72;;;-134.68
12409;BMP180;6268;48.188;17.134;2023-07-29T13:11:03;49652.66;;;-134.68
12409;BMP180;6268;48.188;17.134;2023-07-29T13:13:32;49650.72;;;-134.68
12409;BMP180;6268;48.188;17.134;2023-07-29T13:16:01;49654.59;;;-134.68
12409;BMP180;6268;48.188;17.134;2023-07-29T13:18:31;49650.72;;;-134.68
12409;BMP180;6268;48.188;17.134;2023-07-29T13:21:00;49648.78;;;-134.68
12409;BMP180;6268;48.188;17.134;2023-07-29T13:23:29;49650.72;;;-134.68
12409;BMP180;6268;48.188;17.134;2023-07-29T13:25:58;49650.72;;;-134.68
12409;BMP180;6268;48.188;17.134;2023-07-29T13:28:26;49650.72;;;-134.68
12409;BMP180;6268;48.188;17.134;2023-07-29T13:30:55;49652.66;;;-134.68
12409;BMP180;6268;48.188;17.134;2023-07-29T13:33:24;49648.78;;;-134.68
12409;BMP180;6268;48.188;17.134;2023-07-29T13:35:55;49652.66;;;-134.68
12409;BMP180;6268;48.188;17.134;2023-07-29T13:38:24;49652.66;;;-134.68
12409;BMP180;6268;48.188;17.134;2023-07-29T13:40:52;49650.72;;;-134.68
12409;BMP180;6268;48.188;17.134;2023-07-29T13:43:22;49652.66;;;-134.68
12409;BMP180;6268;48.188;17.134;2023-07-29T13:45:50;49648.78;;;-134.68
12409;BMP180;6268;48.188;17.134;2023-07-29T13:48:19;49652.66;;;-134.68
12409;BMP180;6268;48.188;17.134;2023-07-29T13:50:48;49652.66;;;-134.68
12409;BMP180;6268;48.188;17.134;2023-07-29T13:53:19;49648.78;;;-134.68
12409;BMP180;6268;48.188;17.134;2023-07-29T13:55:48;49650.72;;;-134.68
12409;BMP180;6268;48.188;17.134;2023-07-29T13:58:18;49650.72;;;-134.68
12409;BMP180;6268;48.188;17.134;2023-07-29T14:00:47;49650.72;;;-134.68
12409;BMP180;6268;48.188;17.134;2023-07-29T14:03:16;49650.72;;;-134.68
12409;BMP180;6268;48.188;17.134;2023-07-29T14:05:44;49648.78;;;-134.68
12409;BMP180;6268;48.188;17.134;2023-07-29T14:08:13;49650.72;;;-134.68
12409;BMP180;6268;48.188;17.134;2023-07-29T14:10:43;49650.72;;;-134.68
12409;BMP180;6268;48.188;17.134;2023-07-29T14:13:12;49650.72;;;-134.68
12409;BMP180;6268;48.188;17.134;2023-07-29T14:15:41;49650.72;;;-134.68
12409;BMP180;6268;48.188;17.134;2023-07-29T14:18:10;49650.72;;;-134.68
12409;BMP180;6268;48.188;17.134;2023-07-29T14:20:39;49650.72;;;-134.68
12409;BMP180;6268;48.188;17.134;2023-07-29T14:23:08;49652.66;;;-134.68
12409;BMP180;6268;48.188;17.134;2023-07-29T14:25:36;49650.72;;;-134.68